createdAt,value
2022-07-26T00:00:38.089Z,3.20
2022-07-26T00:01:38.030Z,3.30
2022-07-26T00:02:59.097Z,3.20
2022-07-26T00:03:37.926Z,3.20
2022-07-26T00:04:39.047Z,3.10
2022-07-26T00:05:37.930Z,3.10
2022-07-26T00:06:38.980Z,3.30
2022-07-26T00:07:37.888Z,3.30
2022-07-26T00:08:37.988Z,3.20
2022-07-26T00:09:37.860Z,3.50
2022-07-26T00:10:37.937Z,3.30
2022-07-26T00:11:37.860Z,3.40
2022-07-26T00:12:37.972Z,3.30
2022-07-26T00:13:37.799Z,3.30
2022-07-26T00:14:37.999Z,3.30
2022-07-26T00:15:37.790Z,3.30
2022-07-26T00:16:37.895Z,3.20
2022-07-26T00:17:37.870Z,3.20
2022-07-26T00:18:37.870Z,3.30
2022-07-26T00:19:37.731Z,3.20
2022-07-26T00:20:37.811Z,3.40
2022-07-26T00:21:40.697Z,3.50
2022-07-26T00:22:37.841Z,3.20
2022-07-26T00:23:37.690Z,3.60
2022-07-26T00:24:37.880Z,3.20
2022-07-26T00:25:37.651Z,3.50
2022-07-26T00:26:37.713Z,3.30
2022-07-26T00:27:37.621Z,3.40
2022-07-26T00:28:37.750Z,3.20
2022-07-26T00:29:37.613Z,3.30
2022-07-26T00:30:37.681Z,3.40
2022-07-26T00:31:37.611Z,3.60
2022-07-26T00:32:38.745Z,3.40
2022-07-26T00:33:37.550Z,3.10
2022-07-26T00:34:37.651Z,3.60
2022-07-26T00:35:37.529Z,3.40
2022-07-26T00:36:37.592Z,3.20
2022-07-26T00:37:37.493Z,3.30
2022-07-26T00:38:39.615Z,3.30
2022-07-26T00:39:37.465Z,3.40
2022-07-26T00:40:37.563Z,3.30
2022-07-26T00:41:37.456Z,3.20
2022-07-26T00:42:38.625Z,3.30
2022-07-26T00:43:37.431Z,3.40
2022-07-26T00:44:37.524Z,3.10
2022-07-26T00:45:37.395Z,3.50
2022-07-26T00:46:37.511Z,3.60
2022-07-26T00:47:37.393Z,3.40
2022-07-26T00:48:37.546Z,3.30
2022-07-26T00:49:37.332Z,3.20
2022-07-26T00:50:37.436Z,3.20
2022-07-26T00:51:37.307Z,3.30
2022-07-26T00:52:37.375Z,3.30
2022-07-26T00:53:37.315Z,3.40
2022-07-26T00:54:38.326Z,3.60
2022-07-26T00:55:37.305Z,3.10
2022-07-26T00:56:37.345Z,3.20
2022-07-26T00:57:37.329Z,3.30
2022-07-26T00:58:37.395Z,3.50
2022-07-26T00:59:37.266Z,3.00
2022-07-26T01:00:58.323Z,3.30
2022-07-26T01:01:37.386Z,3.10
2022-07-26T01:02:37.347Z,3.20
2022-07-26T01:03:39.851Z,3.20
2022-07-26T01:04:38.258Z,3.50
2022-07-26T01:05:37.178Z,3.90
2022-07-26T01:06:37.301Z,3.30
2022-07-26T01:07:37.097Z,3.20
2022-07-26T01:08:37.180Z,3.10
2022-07-26T01:09:37.068Z,3.20
2022-07-26T01:10:38.269Z,3.40
2022-07-26T01:11:37.050Z,3.50
2022-07-26T01:12:39.219Z,3.20
2022-07-26T01:13:37.020Z,3.40
2022-07-26T01:14:37.221Z,3.60
2022-07-26T01:15:36.990Z,3.40
2022-07-26T01:16:37.285Z,3.40
2022-07-26T01:17:38.183Z,3.40
2022-07-26T01:18:38.158Z,3.30
2022-07-26T01:19:36.949Z,3.20
2022-07-26T01:20:36.969Z,3.30
2022-07-26T01:21:36.912Z,3.30
2022-07-26T01:22:37.050Z,3.30
2022-07-26T01:23:36.891Z,3.40
2022-07-26T01:24:37.037Z,3.20
2022-07-26T01:25:43.114Z,3.70
2022-07-26T01:26:37.844Z,3.30
2022-07-26T01:27:37.965Z,3.00
2022-07-26T01:28:36.852Z,3.30
2022-07-26T01:29:36.983Z,3.60
2022-07-26T01:30:36.814Z,3.20
2022-07-26T01:32:46.152Z,3.90
2022-07-26T01:33:46.103Z,3.80
2022-07-26T01:34:46.166Z,3.70
2022-07-26T01:35:46.054Z,3.70
2022-07-26T01:37:08.162Z,3.90
2022-07-26T01:37:46.033Z,3.50
2022-07-26T01:38:46.091Z,4.10
2022-07-26T01:39:46.023Z,3.70
2022-07-26T01:40:46.123Z,3.50
2022-07-26T01:41:45.981Z,3.80
2022-07-26T01:42:46.024Z,3.70
2022-07-26T01:43:45.954Z,3.60
2022-07-26T01:44:46.034Z,3.10
2022-07-26T01:45:46.011Z,3.00
2022-07-26T01:46:46.034Z,3.00
2022-07-26T01:47:45.894Z,2.60
2022-07-26T01:48:45.983Z,3.10
2022-07-26T01:49:45.873Z,3.10
2022-07-26T01:50:45.974Z,2.70
2022-07-26T01:51:45.871Z,3.10
2022-07-26T01:52:45.885Z,2.80
2022-07-26T01:53:45.824Z,2.40
2022-07-26T01:54:45.900Z,2.70
2022-07-26T01:55:45.796Z,2.80
2022-07-26T01:56:45.916Z,2.50
2022-07-26T01:57:45.887Z,2.70
2022-07-26T01:58:46.874Z,2.40
2022-07-26T01:59:45.745Z,2.80
2022-07-26T02:00:45.744Z,2.70
2022-07-26T02:01:45.798Z,2.80
2022-07-26T02:02:45.912Z,2.30
2022-07-26T02:03:45.708Z,2.50
2022-07-26T02:04:45.768Z,2.40
2022-07-26T02:05:45.658Z,2.60
2022-07-26T02:06:45.684Z,2.30
2022-07-26T02:07:45.638Z,2.60
2022-07-26T02:08:45.689Z,2.40
2022-07-26T02:09:45.627Z,2.60
2022-07-26T02:10:45.718Z,2.70
2022-07-26T02:11:45.586Z,2.50
2022-07-26T02:12:45.621Z,2.10
2022-07-26T02:13:48.800Z,2.40
2022-07-26T02:14:46.565Z,2.30
2022-07-26T02:15:45.747Z,2.10
2022-07-26T02:16:45.518Z,2.10
2022-07-26T02:17:45.629Z,2.10
2022-07-26T02:18:45.489Z,2.30
2022-07-26T02:19:45.570Z,2.30
2022-07-26T02:20:45.479Z,2.00
2022-07-26T02:21:45.482Z,2.10
2022-07-26T02:22:45.437Z,2.10
2022-07-26T02:23:45.499Z,2.00
2022-07-26T02:24:45.410Z,2.30
2022-07-26T02:25:46.500Z,2.30
2022-07-26T02:26:45.408Z,2.30
2022-07-26T02:27:45.429Z,2.20
2022-07-26T02:28:45.361Z,2.00
2022-07-26T02:29:45.441Z,2.10
2022-07-26T02:30:45.386Z,2.20
2022-07-26T02:31:48.348Z,2.00
2022-07-26T02:32:45.321Z,2.00
2022-07-26T02:33:45.366Z,2.00
2022-07-26T02:34:45.282Z,2.40
2022-07-26T02:35:45.385Z,2.30
2022-07-26T02:36:45.253Z,2.20
2022-07-26T02:37:45.343Z,1.90
2022-07-26T02:38:45.223Z,2.10
2022-07-26T02:39:45.305Z,1.90
2022-07-26T02:40:45.200Z,2.30
2022-07-26T02:41:45.223Z,2.10
2022-07-26T02:42:45.186Z,1.90
2022-07-26T02:43:45.283Z,2.20
2022-07-26T02:44:45.143Z,2.20
2022-07-26T02:45:45.326Z,2.00
2022-07-26T02:46:46.243Z,2.10
2022-07-26T02:47:45.156Z,2.30
2022-07-26T02:48:45.127Z,2.10
2022-07-26T02:49:45.234Z,2.20
2022-07-26T02:50:45.078Z,2.10
2022-07-26T02:51:45.088Z,2.30
2022-07-26T02:52:45.045Z,2.10
2022-07-26T02:53:45.106Z,2.30
2022-07-26T02:54:45.017Z,2.10
2022-07-26T02:55:45.156Z,2.10
2022-07-26T02:56:44.987Z,1.90
2022-07-26T02:57:46.822Z,2.10
2022-07-26T02:58:44.966Z,2.20
2022-07-26T02:59:45.047Z,2.20
2022-07-26T03:00:44.948Z,2.20
2022-07-26T03:01:45.046Z,2.40
2022-07-26T03:02:44.942Z,2.50
2022-07-26T03:03:50.416Z,2.40
2022-07-26T03:04:45.888Z,2.50
2022-07-26T03:05:44.989Z,2.50
2022-07-26T03:06:44.858Z,2.80
2022-07-26T03:07:44.953Z,2.80
2022-07-26T03:08:44.840Z,2.50
2022-07-26T03:09:44.914Z,2.50
2022-07-26T03:10:44.828Z,2.80
2022-07-26T03:11:44.935Z,2.60
2022-07-26T03:12:44.791Z,2.60
2022-07-26T03:13:44.900Z,2.60
2022-07-26T03:14:44.759Z,2.70
2022-07-26T03:15:45.021Z,2.70
2022-07-26T03:16:44.729Z,2.50
2022-07-26T03:20:04.879Z,1.90
2022-07-26T03:21:04.745Z,2.00
2022-07-26T03:22:04.820Z,2.30
2022-07-26T03:23:04.717Z,1.90
2022-07-26T03:24:05.997Z,2.30
2022-07-26T03:25:04.682Z,2.30
2022-07-26T03:26:04.794Z,2.30
2022-07-26T03:27:04.658Z,2.20
2022-07-26T03:28:05.755Z,2.30
2022-07-26T03:29:04.628Z,2.10
2022-07-26T03:30:04.710Z,2.10
2022-07-26T03:31:04.645Z,2.20
2022-07-26T03:32:04.690Z,2.20
2022-07-26T03:33:04.577Z,2.40
2022-07-26T03:34:04.850Z,2.30
2022-07-26T03:35:04.549Z,2.10
2022-07-26T03:36:04.720Z,2.10
2022-07-26T03:37:05.521Z,2.00
2022-07-26T03:38:04.600Z,2.00
2022-07-26T03:39:04.500Z,2.00
2022-07-26T03:40:26.532Z,2.00
2022-07-26T03:41:04.471Z,2.50
2022-07-26T03:42:04.621Z,1.90
2022-07-26T03:43:04.441Z,2.10
2022-07-26T03:44:04.827Z,1.80
2022-07-26T03:45:04.411Z,2.10
2022-07-26T03:46:04.492Z,2.00
2022-07-26T03:47:04.490Z,2.00
2022-07-26T03:48:04.476Z,2.00
2022-07-26T03:49:04.394Z,2.00
2022-07-26T03:50:04.512Z,2.00
2022-07-26T03:51:04.334Z,1.70
2022-07-26T03:52:06.543Z,2.00
2022-07-26T03:53:04.333Z,1.80
2022-07-26T03:54:05.758Z,2.10
2022-07-26T03:55:04.306Z,2.00
2022-07-26T03:56:04.313Z,1.90
2022-07-26T03:57:04.255Z,1.90
2022-07-26T03:58:04.385Z,1.70
2022-07-26T03:59:04.253Z,2.00
2022-07-26T04:00:04.387Z,1.70
2022-07-26T04:01:04.291Z,1.80
2022-07-26T04:02:04.405Z,1.80
2022-07-26T04:03:04.262Z,1.70
2022-07-26T04:04:04.256Z,1.70
2022-07-26T04:05:04.174Z,2.00
2022-07-26T04:06:04.186Z,1.90
2022-07-26T04:07:04.133Z,1.80
2022-07-26T04:08:05.254Z,1.90
2022-07-26T04:09:04.104Z,1.60
2022-07-26T04:10:04.265Z,2.00
2022-07-26T04:11:04.086Z,2.00
2022-07-26T04:12:04.204Z,1.90
2022-07-26T04:13:04.057Z,2.00
2022-07-26T04:14:04.139Z,1.90
2022-07-26T04:15:04.026Z,2.00
2022-07-26T04:16:04.120Z,1.80
2022-07-26T04:17:04.081Z,1.90
2022-07-26T04:18:04.106Z,1.80
2022-07-26T04:19:03.976Z,1.70
2022-07-26T04:20:04.069Z,1.90
2022-07-26T04:21:03.957Z,1.80
2022-07-26T04:22:04.137Z,1.90
2022-07-26T04:23:03.919Z,2.10
2022-07-26T04:24:05.311Z,2.10
2022-07-26T04:25:04.078Z,2.00
2022-07-26T04:26:03.877Z,1.70
2022-07-26T04:27:03.914Z,1.80
2022-07-26T04:28:03.879Z,1.90
2022-07-26T04:29:03.948Z,2.00
2022-07-26T04:30:03.819Z,2.10
2022-07-26T04:31:03.911Z,1.80
2022-07-26T04:32:03.798Z,2.00
2022-07-26T04:33:03.926Z,2.20
2022-07-26T04:34:03.824Z,1.90
2022-07-26T04:35:04.878Z,1.80
2022-07-26T04:36:03.742Z,2.10
2022-07-26T04:37:03.789Z,2.10
2022-07-26T04:38:03.719Z,1.80
2022-07-26T04:39:03.827Z,1.90
2022-07-26T04:40:03.719Z,1.80
2022-07-26T04:41:03.860Z,2.00
2022-07-26T04:42:03.661Z,1.70
2022-07-26T04:43:05.890Z,1.90
2022-07-26T04:44:03.635Z,2.00
2022-07-26T04:45:08.077Z,1.80
2022-07-26T04:46:03.702Z,1.90
2022-07-26T04:47:04.690Z,1.70
2022-07-26T04:48:03.581Z,1.80
2022-07-26T04:49:03.881Z,1.90
2022-07-26T04:50:03.560Z,1.90
2022-07-26T04:51:03.639Z,1.60
2022-07-26T04:52:03.550Z,1.90
2022-07-26T04:53:03.671Z,1.80
2022-07-26T04:54:03.499Z,1.90
2022-07-26T04:55:03.614Z,1.90
2022-07-26T04:56:03.474Z,2.10
2022-07-26T04:57:03.576Z,1.80
2022-07-26T04:58:03.462Z,1.70
2022-07-26T04:59:03.581Z,1.90
2022-07-26T05:00:20.886Z,1.90
2022-07-26T05:01:11.644Z,1.80
2022-07-26T05:02:04.619Z,1.90
2022-07-26T05:03:03.415Z,2.10
2022-07-26T05:04:03.412Z,1.80
2022-07-26T05:05:03.352Z,1.80
2022-07-26T05:06:03.453Z,1.80
2022-07-26T05:07:03.332Z,2.10
2022-07-26T05:08:03.490Z,2.00
2022-07-26T05:09:03.302Z,2.10
2022-07-26T05:10:04.383Z,2.00
2022-07-26T05:11:03.273Z,1.70
2022-07-26T05:12:03.357Z,2.10
2022-07-26T05:13:03.235Z,2.10
2022-07-26T05:14:03.394Z,2.00
2022-07-26T05:15:04.494Z,2.20
2022-07-26T05:16:03.384Z,2.20
2022-07-26T05:17:09.053Z,1.80
2022-07-26T05:18:06.945Z,1.90
2022-07-26T05:19:03.334Z,2.00
2022-07-26T05:20:03.638Z,2.00
2022-07-26T05:21:03.264Z,1.90
2022-07-26T05:22:03.167Z,2.20
2022-07-26T05:23:03.223Z,2.00
2022-07-26T05:24:03.110Z,1.70
2022-07-26T05:25:03.085Z,1.90
2022-07-26T05:26:03.106Z,2.00
2022-07-26T05:27:03.056Z,1.70
2022-07-26T05:28:03.195Z,2.00
2022-07-26T05:29:03.027Z,2.10
2022-07-26T05:30:04.097Z,1.90
2022-07-26T05:31:03.215Z,2.10
2022-07-26T05:32:03.109Z,2.10
2022-07-26T05:33:02.977Z,2.20
2022-07-26T05:34:03.100Z,2.30
2022-07-26T05:35:02.946Z,2.00
2022-07-26T05:36:04.108Z,2.00
2022-07-26T05:37:02.917Z,2.00
2022-07-26T05:38:03.017Z,1.90
2022-07-26T05:39:02.898Z,2.00
2022-07-26T05:40:03.016Z,2.20
2022-07-26T05:41:02.867Z,2.10
2022-07-26T05:42:02.989Z,1.90
2022-07-26T05:43:02.841Z,2.20
2022-07-26T05:44:03.027Z,2.00
2022-07-26T05:45:02.816Z,2.10
2022-07-26T05:46:09.286Z,1.90
2022-07-26T05:47:03.788Z,2.00
2022-07-26T05:48:02.898Z,2.30
2022-07-26T05:49:02.825Z,2.00
2022-07-26T05:50:23.798Z,2.00
2022-07-26T05:51:02.731Z,2.10
2022-07-26T05:52:02.840Z,2.00
2022-07-26T05:53:02.709Z,2.20
2022-07-26T05:54:02.800Z,2.00
2022-07-26T05:55:02.698Z,2.10
2022-07-26T05:56:03.746Z,1.90
2022-07-26T05:57:02.657Z,2.20
2022-07-26T05:58:02.671Z,1.90
2022-07-26T05:59:02.633Z,1.90
2022-07-26T06:00:02.695Z,2.20
2022-07-26T06:01:02.600Z,2.00
2022-07-26T06:02:02.690Z,2.20
2022-07-26T06:03:02.570Z,1.90
2022-07-26T06:04:02.683Z,2.10
2022-07-26T06:05:02.550Z,2.20
2022-07-26T06:06:02.581Z,2.10
2022-07-26T06:07:02.518Z,2.10
2022-07-26T06:08:02.591Z,2.50
2022-07-26T06:09:02.503Z,2.10
2022-07-26T06:10:02.556Z,2.00
2022-07-26T06:11:02.460Z,2.30
2022-07-26T06:12:02.603Z,2.00
2022-07-26T06:13:02.432Z,2.20
2022-07-26T06:14:03.458Z,2.30
2022-07-26T06:15:02.422Z,2.10
2022-07-26T06:16:02.504Z,2.00
2022-07-26T06:17:02.439Z,2.10
2022-07-26T06:18:02.464Z,2.40
2022-07-26T06:19:02.355Z,2.20
2022-07-26T06:20:02.373Z,2.10
2022-07-26T06:21:02.768Z,2.50
2022-07-26T06:22:02.453Z,2.20
2022-07-26T06:23:02.297Z,2.30
2022-07-26T06:24:02.404Z,2.20
2022-07-26T06:25:02.295Z,2.10
2022-07-26T06:26:02.327Z,2.40
2022-07-26T06:27:05.319Z,2.40
2022-07-26T06:28:02.283Z,2.40
2022-07-26T06:29:02.225Z,2.40
2022-07-26T06:30:02.242Z,2.30
2022-07-26T06:31:02.205Z,2.60
2022-07-26T06:32:02.347Z,2.50
2022-07-26T06:33:06.655Z,2.40
2022-07-26T06:34:02.222Z,2.20
2022-07-26T06:35:02.155Z,2.50
2022-07-26T06:36:02.178Z,2.30
2022-07-26T06:37:02.126Z,2.50
2022-07-26T06:38:02.205Z,2.20
2022-07-26T06:39:02.095Z,2.20
2022-07-26T06:40:03.197Z,2.40
2022-07-26T06:41:02.076Z,2.20
2022-07-26T06:42:02.129Z,2.10
2022-07-26T06:43:04.575Z,2.10
2022-07-26T06:44:02.156Z,2.30
2022-07-26T06:45:02.027Z,2.10
2022-07-26T06:46:02.223Z,2.50
2022-07-26T06:47:01.988Z,2.20
2022-07-26T06:48:02.068Z,2.10
2022-07-26T06:49:02.306Z,2.40
2022-07-26T06:50:01.979Z,2.20
2022-07-26T06:51:01.950Z,2.30
2022-07-26T06:52:03.069Z,2.40
2022-07-26T06:53:01.919Z,2.20
2022-07-26T06:54:03.998Z,2.10
2022-07-26T06:55:01.888Z,2.40
2022-07-26T06:56:01.918Z,2.10
2022-07-26T06:57:01.867Z,2.30
2022-07-26T06:58:01.989Z,2.20
2022-07-26T06:59:06.252Z,2.30
2022-07-26T07:00:02.921Z,2.40
2022-07-26T07:01:02.028Z,1.80
2022-07-26T07:02:01.891Z,2.20
2022-07-26T07:03:01.899Z,2.10
2022-07-26T07:04:01.800Z,2.20
2022-07-26T07:05:02.009Z,2.40
2022-07-26T07:06:01.762Z,2.50
2022-07-26T07:07:01.808Z,2.10
2022-07-26T07:08:01.728Z,2.20
2022-07-26T07:09:02.860Z,2.10
2022-07-26T07:10:01.739Z,2.20
2022-07-26T07:11:01.916Z,2.20
2022-07-26T07:12:05.566Z,2.20
2022-07-26T07:13:02.671Z,2.30
2022-07-26T07:14:02.771Z,2.10
2022-07-26T07:15:01.647Z,2.10
2022-07-26T07:16:01.768Z,2.20
2022-07-26T07:17:01.616Z,2.20
2022-07-26T07:18:01.676Z,2.00
2022-07-26T07:19:01.585Z,2.10
2022-07-26T07:20:01.689Z,2.20
2022-07-26T07:21:01.561Z,2.20
2022-07-26T07:22:01.650Z,2.70
2022-07-26T07:23:04.531Z,2.30
2022-07-26T07:24:04.888Z,2.20
2022-07-26T07:25:01.508Z,2.10
2022-07-26T07:26:02.554Z,2.20
2022-07-26T07:27:01.490Z,2.40
2022-07-26T07:28:01.598Z,2.20
2022-07-26T07:29:01.457Z,2.10
2022-07-26T07:30:01.560Z,2.80
2022-07-26T07:31:03.748Z,2.20
2022-07-26T07:32:03.397Z,1.90
2022-07-26T07:33:01.404Z,2.10
2022-07-26T07:34:01.434Z,2.00
2022-07-26T07:35:01.393Z,2.30
2022-07-26T07:36:03.363Z,2.20
2022-07-26T07:37:01.354Z,2.10
2022-07-26T07:38:01.409Z,2.20
2022-07-26T07:39:06.192Z,2.20
2022-07-26T07:40:02.334Z,2.20
2022-07-26T07:41:01.325Z,2.20
2022-07-26T07:42:01.274Z,2.00
2022-07-26T07:43:01.346Z,2.20
2022-07-26T07:44:01.256Z,2.20
2022-07-26T07:45:01.360Z,2.00
2022-07-26T07:46:01.260Z,1.90
2022-07-26T07:47:01.335Z,2.10
2022-07-26T07:48:01.197Z,1.80
2022-07-26T07:49:02.242Z,1.80
2022-07-26T07:50:01.176Z,1.60
2022-07-26T07:51:01.205Z,1.90
2022-07-26T07:52:01.156Z,2.00
2022-07-26T07:53:02.182Z,1.90
2022-07-26T07:54:05.144Z,1.90
2022-07-26T07:55:21.891Z,1.80
2022-07-26T07:56:02.088Z,2.00
2022-07-26T07:57:01.160Z,1.90
2022-07-26T07:58:01.196Z,1.90
2022-07-26T07:59:01.057Z,1.90
2022-07-26T08:00:01.057Z,2.00
2022-07-26T08:01:01.075Z,1.70
2022-07-26T08:02:01.068Z,1.80
2022-07-26T08:03:00.999Z,1.80
2022-07-26T08:04:01.092Z,1.80
2022-07-26T08:05:11.419Z,1.90
2022-07-26T08:06:01.958Z,2.10
2022-07-26T08:07:01.083Z,1.80
2022-07-26T08:08:00.928Z,1.70
2022-07-26T08:09:01.010Z,1.70
2022-07-26T08:10:00.928Z,1.80
2022-07-26T08:11:00.931Z,1.90
2022-07-26T08:12:00.883Z,2.00
2022-07-26T08:13:01.028Z,2.00
2022-07-26T08:14:00.859Z,1.90
2022-07-26T08:15:01.750Z,2.00
2022-07-26T08:16:02.016Z,1.70
2022-07-26T08:17:00.924Z,1.80
2022-07-26T08:18:00.970Z,1.80
2022-07-26T08:19:00.894Z,1.80
2022-07-26T08:20:00.872Z,2.00
2022-07-26T08:21:00.850Z,1.80
2022-07-26T08:22:00.789Z,1.70
2022-07-26T08:23:00.812Z,1.80
2022-07-26T08:24:00.724Z,2.00
2022-07-26T08:25:00.724Z,1.90
2022-07-26T08:26:04.685Z,1.70
2022-07-26T08:27:01.750Z,2.10
2022-07-26T08:28:03.819Z,1.70
2022-07-26T08:29:00.726Z,1.90
2022-07-26T08:30:00.762Z,1.70
2022-07-26T08:31:00.684Z,1.80
2022-07-26T08:32:01.765Z,1.80
2022-07-26T08:33:00.624Z,2.10
2022-07-26T08:34:01.612Z,1.60
2022-07-26T08:35:17.099Z,2.00
2022-07-26T08:36:01.604Z,1.80
2022-07-26T08:37:16.524Z,1.80
2022-07-26T08:38:01.565Z,1.80
2022-07-26T08:39:01.665Z,1.80
2022-07-26T08:40:00.515Z,1.80
2022-07-26T08:41:01.564Z,1.80
2022-07-26T08:42:00.505Z,1.90
2022-07-26T08:43:23.785Z,2.00
2022-07-26T08:44:00.574Z,2.10
2022-07-26T08:45:00.575Z,2.10
2022-07-26T08:46:00.435Z,2.00
2022-07-26T08:47:00.522Z,2.20
2022-07-26T08:48:17.144Z,2.10
2022-07-26T08:49:01.492Z,2.10
2022-07-26T08:50:00.496Z,1.90
2022-07-26T08:51:00.375Z,1.90
2022-07-26T08:52:00.407Z,2.00
2022-07-26T08:53:00.346Z,1.80
2022-07-26T08:54:05.206Z,2.00
2022-07-26T08:55:01.336Z,1.90
2022-07-26T08:56:07.883Z,1.90
2022-07-26T08:57:01.295Z,1.90
2022-07-26T08:58:00.346Z,2.10
2022-07-26T08:59:00.266Z,1.80
2022-07-26T09:00:01.286Z,1.90
2022-07-26T09:01:00.303Z,1.90
2022-07-26T09:02:01.340Z,2.10
2022-07-26T09:03:00.219Z,2.20
2022-07-26T09:04:01.386Z,2.00
2022-07-26T09:05:00.188Z,2.30
2022-07-26T09:06:01.227Z,1.90
2022-07-26T09:07:00.184Z,2.00
2022-07-26T09:08:00.220Z,2.00
2022-07-26T09:09:00.136Z,2.00
2022-07-26T09:10:00.289Z,2.30
2022-07-26T09:11:00.109Z,1.90
2022-07-26T09:12:00.168Z,2.30
2022-07-26T09:13:00.098Z,2.10
2022-07-26T09:14:00.594Z,2.20
2022-07-26T09:15:00.077Z,2.10
2022-07-26T09:16:00.122Z,2.00
2022-07-26T09:17:00.037Z,2.00
2022-07-26T09:18:00.094Z,2.00
2022-07-26T09:19:00.019Z,2.20
2022-07-26T09:20:00.140Z,2.10
2022-07-26T09:21:00.870Z,2.00
2022-07-26T09:22:01.052Z,1.90
2022-07-26T09:22:59.949Z,2.10
2022-07-26T09:24:00.036Z,2.00
2022-07-26T09:24:59.940Z,2.40
2022-07-26T09:26:00.961Z,2.10
2022-07-26T09:26:59.899Z,2.30
2022-07-26T09:27:59.960Z,2.30
2022-07-26T09:28:59.881Z,1.90
2022-07-26T09:29:59.972Z,2.00
2022-07-26T09:30:59.959Z,2.40
2022-07-26T09:31:59.971Z,2.20
2022-07-26T09:32:59.813Z,2.00
2022-07-26T09:33:59.903Z,2.20
2022-07-26T09:34:59.986Z,2.20
2022-07-26T09:35:59.804Z,2.20
2022-07-26T09:36:59.786Z,2.10
2022-07-26T09:37:59.822Z,2.40
2022-07-26T09:38:59.731Z,2.10
2022-07-26T09:39:59.734Z,2.00
2022-07-26T09:40:59.713Z,2.30
2022-07-26T09:42:24.963Z,2.10
2022-07-26T09:43:00.735Z,2.30
2022-07-26T09:43:59.653Z,2.00
2022-07-26T09:44:59.773Z,2.20
2022-07-26T09:45:59.643Z,2.20
2022-07-26T09:46:59.750Z,2.10
2022-07-26T09:47:59.615Z,2.00
2022-07-26T09:49:10.355Z,2.00
2022-07-26T09:50:00.650Z,2.00
2022-07-26T09:52:08.941Z,1.90
2022-07-26T09:53:08.883Z,1.90
2022-07-26T09:54:09.452Z,2.20
2022-07-26T09:55:09.329Z,2.20
2022-07-26T09:56:08.862Z,1.80
2022-07-26T09:57:08.778Z,2.00
2022-07-26T09:58:08.773Z,2.20
2022-07-26T09:59:08.743Z,2.10
2022-07-26T10:00:08.842Z,2.20
2022-07-26T10:01:08.713Z,2.00
2022-07-26T10:02:08.851Z,2.10
2022-07-26T10:03:08.758Z,2.10
2022-07-26T10:04:09.056Z,2.10
2022-07-26T10:05:08.676Z,1.80
2022-07-26T10:06:08.786Z,2.20
2022-07-26T10:07:08.643Z,2.00
2022-07-26T10:08:08.743Z,2.10
2022-07-26T10:09:08.619Z,2.00
2022-07-26T10:10:08.657Z,2.30
2022-07-26T10:11:08.583Z,2.00
2022-07-26T10:12:08.637Z,2.10
2022-07-26T10:13:08.559Z,2.10
2022-07-26T10:14:08.896Z,2.50
2022-07-26T10:15:08.539Z,2.20
2022-07-26T10:16:08.616Z,2.10
2022-07-26T10:17:08.496Z,2.10
2022-07-26T10:18:09.585Z,1.90
2022-07-26T10:19:09.485Z,2.00
2022-07-26T10:20:10.537Z,2.80
2022-07-26T10:21:09.447Z,2.10
2022-07-26T10:22:08.555Z,2.00
2022-07-26T10:23:08.437Z,2.20
2022-07-26T10:24:08.845Z,2.00
2022-07-26T10:25:08.414Z,2.00
2022-07-26T10:26:12.700Z,2.10
2022-07-26T10:27:08.376Z,1.90
2022-07-26T10:28:09.930Z,2.10
2022-07-26T10:29:08.347Z,2.10
2022-07-26T10:30:08.454Z,2.10
2022-07-26T10:31:08.324Z,2.10
2022-07-26T10:32:08.428Z,2.10
2022-07-26T10:33:08.298Z,2.40
2022-07-26T10:34:08.642Z,2.20
2022-07-26T10:35:08.376Z,2.20
2022-07-26T10:36:08.933Z,1.80
2022-07-26T10:37:08.250Z,2.20
2022-07-26T10:38:08.352Z,2.20
2022-07-26T10:39:08.219Z,2.40
2022-07-26T10:40:08.259Z,2.20
2022-07-26T10:41:08.204Z,2.20
2022-07-26T10:42:08.219Z,2.10
2022-07-26T10:43:37.655Z,2.30
2022-07-26T10:44:09.317Z,2.10
2022-07-26T10:45:08.193Z,2.20
2022-07-26T10:46:08.195Z,2.20
2022-07-26T10:47:08.815Z,2.30
2022-07-26T10:48:08.121Z,2.20
2022-07-26T10:49:08.105Z,2.00
2022-07-26T10:50:08.128Z,2.50
2022-07-26T10:51:08.071Z,2.10
2022-07-26T10:52:08.828Z,2.40
2022-07-26T10:53:08.361Z,2.40
2022-07-26T10:54:09.085Z,2.20
2022-07-26T10:55:08.007Z,2.30
2022-07-26T10:56:09.091Z,2.10
2022-07-26T10:57:08.003Z,2.10
2022-07-26T10:58:08.086Z,2.30
2022-07-26T10:59:08.209Z,2.50
2022-07-26T11:00:08.033Z,2.50
2022-07-26T11:01:07.952Z,2.30
2022-07-26T11:02:08.102Z,2.20
2022-07-26T11:03:08.000Z,2.20
2022-07-26T11:04:10.351Z,2.20
2022-07-26T11:05:07.904Z,2.20
2022-07-26T11:06:08.004Z,2.40
2022-07-26T11:07:07.845Z,2.40
2022-07-26T11:08:07.960Z,2.30
2022-07-26T11:09:07.834Z,2.40
2022-07-26T11:10:08.919Z,2.30
2022-07-26T11:11:07.791Z,2.30
2022-07-26T11:12:08.021Z,2.40
2022-07-26T11:13:08.015Z,2.20
2022-07-26T11:14:08.288Z,2.50
2022-07-26T11:15:07.738Z,2.30
2022-07-26T11:16:07.875Z,1.80
2022-07-26T11:17:07.716Z,2.00
2022-07-26T11:18:07.768Z,2.10
2022-07-26T11:19:07.698Z,2.10
2022-07-26T11:20:07.767Z,2.10
2022-07-26T11:21:07.668Z,2.50
2022-07-26T11:22:07.746Z,2.20
2022-07-26T11:23:07.664Z,2.30
2022-07-26T11:24:08.112Z,2.20
2022-07-26T11:25:07.618Z,2.20
2022-07-26T11:26:07.670Z,2.30
2022-07-26T11:27:07.597Z,2.30
2022-07-26T11:28:08.290Z,2.40
2022-07-26T11:29:07.556Z,2.40
2022-07-26T11:30:07.744Z,2.00
2022-07-26T11:31:07.571Z,2.30
2022-07-26T11:32:14.498Z,2.20
2022-07-26T11:33:08.512Z,2.20
2022-07-26T11:34:07.706Z,2.20
2022-07-26T11:35:07.479Z,2.50
2022-07-26T11:36:07.580Z,2.30
2022-07-26T11:37:07.458Z,2.00
2022-07-26T11:38:28.538Z,2.40
2022-07-26T11:39:07.441Z,1.80
2022-07-26T11:40:07.473Z,1.70
2022-07-26T11:41:07.409Z,2.40
2022-07-26T11:42:07.435Z,2.50
2022-07-26T11:43:07.397Z,1.90
2022-07-26T11:44:28.522Z,2.10
2022-07-26T11:45:07.376Z,2.30
2022-07-26T11:46:07.505Z,2.00
2022-07-26T11:47:07.330Z,2.50
2022-07-26T11:48:07.365Z,2.30
2022-07-26T11:49:07.583Z,2.40
2022-07-26T11:50:16.870Z,2.10
2022-07-26T11:51:08.282Z,2.10
2022-07-26T11:52:07.352Z,2.20
2022-07-26T11:53:07.264Z,2.60
2022-07-26T11:54:07.616Z,2.10
2022-07-26T11:55:07.238Z,2.30
2022-07-26T11:56:07.282Z,2.00
2022-07-26T11:57:07.203Z,2.10
2022-07-26T11:58:07.315Z,2.10
2022-07-26T11:59:07.182Z,2.00
2022-07-26T12:00:07.276Z,2.30
2022-07-26T12:01:07.157Z,2.10
2022-07-26T12:02:07.153Z,2.30
2022-07-26T12:03:07.132Z,2.30
2022-07-26T12:04:07.310Z,2.00
2022-07-26T12:05:07.214Z,2.60
2022-07-26T12:06:10.376Z,2.90
2022-07-26T12:07:07.076Z,2.30
2022-07-26T12:08:07.223Z,2.50
2022-07-26T12:09:07.037Z,2.60
2022-07-26T12:10:07.076Z,2.70
2022-07-26T12:11:07.303Z,2.70
2022-07-26T12:12:07.147Z,2.80
2022-07-26T12:13:06.997Z,2.90
2022-07-26T12:14:08.281Z,2.70
2022-07-26T12:15:07.571Z,2.50
2022-07-26T12:16:07.117Z,2.90
2022-07-26T12:17:06.963Z,3.10
2022-07-26T12:18:06.979Z,2.40
2022-07-26T12:19:06.971Z,2.30
2022-07-26T12:20:07.967Z,2.70
2022-07-26T12:21:08.026Z,2.60
2022-07-26T12:22:08.298Z,3.00
2022-07-26T12:23:06.870Z,3.20
2022-07-26T12:24:07.231Z,2.90
2022-07-26T12:25:06.837Z,3.00
2022-07-26T12:26:10.003Z,2.80
2022-07-26T12:27:06.810Z,3.00
2022-07-26T12:28:06.924Z,2.90
2022-07-26T12:29:06.789Z,2.70
2022-07-26T12:30:06.863Z,2.80
2022-07-26T12:31:06.828Z,2.80
2022-07-26T12:32:12.329Z,2.80
2022-07-26T12:33:07.733Z,2.90
2022-07-26T12:34:06.743Z,3.10
2022-07-26T12:35:06.700Z,2.60
2022-07-26T12:36:06.802Z,2.50
2022-07-26T12:37:06.681Z,2.20
2022-07-26T12:38:06.763Z,1.90
2022-07-26T12:39:06.665Z,1.60
2022-07-26T12:40:07.715Z,1.20
2022-07-26T12:41:06.632Z,1.20
2022-07-26T12:42:07.662Z,1.10
2022-07-26T12:43:06.607Z,0.90
2022-07-26T12:44:06.610Z,0.80
2022-07-26T12:45:06.582Z,0.90
2022-07-26T12:46:06.655Z,0.90
2022-07-26T12:47:06.544Z,1.10
2022-07-26T12:48:06.586Z,1.50
2022-07-26T12:49:06.642Z,1.80
2022-07-26T12:50:06.544Z,2.10
2022-07-26T12:51:06.505Z,2.20
2022-07-26T12:52:06.581Z,2.40
2022-07-26T12:53:06.484Z,2.30
2022-07-26T12:54:06.732Z,1.80
2022-07-26T12:55:06.445Z,1.70
2022-07-26T12:56:06.485Z,1.50
2022-07-26T12:57:06.414Z,1.60
2022-07-26T12:58:06.498Z,1.90
2022-07-26T12:59:06.396Z,1.80
2022-07-26T13:00:07.504Z,1.70
2022-07-26T13:01:06.448Z,1.70
2022-07-26T13:02:06.470Z,1.70
2022-07-26T13:03:06.338Z,1.50
2022-07-26T13:04:06.482Z,1.90
2022-07-26T13:05:06.396Z,1.90
2022-07-26T13:06:06.418Z,1.80
2022-07-26T13:07:06.287Z,2.00
2022-07-26T13:08:06.371Z,1.90
2022-07-26T13:09:06.270Z,2.50
2022-07-26T13:10:31.721Z,2.40
2022-07-26T13:11:07.282Z,2.60
2022-07-26T13:12:06.298Z,3.10
2022-07-26T13:13:06.216Z,3.10
2022-07-26T13:14:06.308Z,4.20
2022-07-26T13:15:06.188Z,4.00
2022-07-26T13:16:11.558Z,3.20
2022-07-26T13:17:07.259Z,4.80
2022-07-26T13:18:06.241Z,5.40
2022-07-26T13:19:06.141Z,4.90
2022-07-26T13:20:06.147Z,5.60
2022-07-26T13:21:06.100Z,6.00
2022-07-26T13:22:06.164Z,6.00
2022-07-26T13:23:06.104Z,6.20